Time;durP1;ratioP1;P1;durP2;ratioP2;P2;SDS_P1;SDS_P2;PMS_P1;PMS_P2;Temp;Humidity;BMP_temperature;BMP_pressure;BME280_temperature;BME280_humidity;BME280_pressure;Samples;Min_cycle;Max_cycle;Signal;HPM_P1;HPM_P2
2024/01/29 00:01:26;;;;;;;5.43;2.53;;;3.00;99.90;;;;;;5078256;28;20234;-81
2024/01/29 00:03:53;;;;;;;4.50;2.97;;;3.10;99.90;;;;;;5068096;28;20223;-81
2024/01/29 00:06:19;;;;;;;4.07;2.53;;;3.10;99.90;;;;;;5060579;28;20222;-81
2024/01/29 00:08:50;;;;;;;3.93;2.57;;;3.10;99.90;;;;;;5062726;28;20257;-81
2024/01/29 00:11:17;;;;;;;6.20;2.60;;;3.10;99.90;;;;;;5063573;28;20312;-81
2024/01/29 00:13:45;;;;;;;5.73;2.53;;;3.20;99.90;;;;;;5063751;28;20211;-81
2024/01/29 00:16:13;;;;;;;5.90;2.50;;;3.10;99.90;;;;;;5063600;28;20260;-80
2024/01/29 00:18:40;;;;;;;7.10;2.57;;;3.20;99.90;;;;;;5088103;28;20218;-80
2024/01/29 00:21:07;;;;;;;5.10;2.43;;;3.20;99.90;;;;;;5060958;28;20225;-81
2024/01/29 00:23:34;;;;;;;3.03;2.10;;;3.20;99.90;;;;;;5083665;28;20241;-80
2024/01/29 00:26:03;;;;;;;5.27;2.50;;;3.20;99.90;;;;;;5086407;28;20218;-80
2024/01/29 00:28:30;;;;;;;4.20;2.27;;;3.20;99.90;;;;;;5082741;28;20244;-81
2024/01/29 00:30:57;;;;;;;4.53;2.57;;;3.20;99.90;;;;;;5061811;28;20588;-81
2024/01/29 00:33:24;;;;;;;5.37;2.50;;;3.20;99.90;;;;;;5058589;28;20768;-81
2024/01/29 00:35:51;;;;;;;4.80;2.47;;;3.20;99.90;;;;;;5059770;28;20774;-81
2024/01/29 00:38:19;;;;;;;4.13;2.70;;;3.20;99.90;;;;;;5069449;28;20279;-81
2024/01/29 00:40:46;;;;;;;5.50;2.40;;;3.30;99.90;;;;;;5084270;28;20229;-81
2024/01/29 00:43:14;;;;;;;4.30;2.50;;;3.30;99.90;;;;;;5066646;28;20284;-80
2024/01/29 00:45:41;;;;;;;4.30;2.30;;;3.30;99.90;;;;;;5066604;28;20245;-81
2024/01/29 00:48:08;;;;;;;4.07;2.37;;;3.30;99.90;;;;;;5057042;28;20231;-82
2024/01/29 00:50:35;;;;;;;4.83;2.63;;;3.30;99.90;;;;;;5060362;28;20226;-81
2024/01/29 00:53:02;;;;;;;4.33;2.13;;;3.30;99.90;;;;;;5088622;28;20212;-81
2024/01/29 00:55:29;;;;;;;3.70;2.27;;;3.30;99.90;;;;;;5080545;28;20228;-82
2024/01/29 00:57:56;;;;;;;4.07;2.17;;;3.40;99.90;;;;;;5088667;28;20236;-81
2024/01/29 01:00:25;;;;;;;4.43;2.40;;;3.40;99.90;;;;;;5068360;28;20290;-83
2024/01/29 01:02:52;;;;;;;4.33;2.07;;;3.40;99.90;;;;;;5064788;28;20233;-83
2024/01/29 01:05:20;;;;;;;3.83;1.97;;;3.40;99.90;;;;;;5070332;28;20236;-82
2024/01/29 01:07:47;;;;;;;4.57;2.07;;;3.50;99.90;;;;;;5064349;28;20319;-82
2024/01/29 01:10:14;;;;;;;3.73;2.07;;;3.50;99.90;;;;;;5064022;28;20218;-82
2024/01/29 01:12:41;;;;;;;3.10;2.07;;;3.50;99.90;;;;;;5068146;28;20236;-82
2024/01/29 01:15:08;;;;;;;2.97;2.10;;;3.50;99.90;;;;;;5069059;28;20218;-81
2024/01/29 01:17:37;;;;;;;3.97;2.20;;;3.50;99.90;;;;;;5088953;28;20306;-80
2024/01/29 01:20:06;;;;;;;4.13;2.00;;;3.60;99.90;;;;;;5078731;28;20271;-81
2024/01/29 01:22:33;;;;;;;4.03;2.30;;;3.60;99.90;;;;;;5058831;28;20295;-81
2024/01/29 01:25:00;;;;;;;2.77;2.00;;;3.70;99.90;;;;;;5063430;28;20215;-82
2024/01/29 01:27:28;;;;;;;4.43;2.10;;;3.70;99.90;;;;;;5082237;28;20865;-81
2024/01/29 01:29:55;;;;;;;3.40;2.00;;;3.80;99.90;;;;;;5086320;28;20227;-82
2024/01/29 01:32:22;;;;;;;4.20;2.00;;;3.80;99.90;;;;;;5067820;28;20522;-81
2024/01/29 01:34:50;;;;;;;3.27;1.90;;;3.90;99.90;;;;;;5064724;28;20255;-82
2024/01/29 01:37:17;;;;;;;2.93;2.23;;;3.90;99.90;;;;;;5068525;28;20232;-82
2024/01/29 01:39:44;;;;;;;3.73;2.07;;;4.00;99.90;;;;;;5077707;28;20347;-82
2024/01/29 01:42:11;;;;;;;3.50;2.20;;;4.00;99.90;;;;;;5064286;28;20259;-81
2024/01/29 01:44:38;;;;;;;3.57;2.00;;;4.00;99.90;;;;;;5059866;28;20760;-81
2024/01/29 01:47:06;;;;;;;3.67;1.90;;;4.10;99.90;;;;;;5067492;28;20231;-81
2024/01/29 01:49:33;;;;;;;2.87;2.00;;;4.10;99.90;;;;;;5066506;28;20740;-81
2024/01/29 01:52:02;;;;;;;2.10;1.53;;;4.10;99.90;;;;;;5050153;28;20301;-81
2024/01/29 01:54:29;;;;;;;3.43;1.80;;;4.10;99.90;;;;;;5071603;28;21087;-80
2024/01/29 01:56:57;;;;;;;3.30;1.80;;;4.10;99.90;;;;;;5087655;28;20250;-81
2024/01/29 01:59:26;;;;;;;3.13;1.77;;;4.10;99.90;;;;;;5070825;28;20259;-81
2024/01/29 02:01:53;;;;;;;3.50;2.00;;;4.10;99.90;;;;;;5061993;28;20226;-81
2024/01/29 02:04:20;;;;;;;3.67;2.13;;;4.10;99.90;;;;;;5066616;28;20272;-80
2024/01/29 02:06:48;;;;;;;3.03;1.80;;;4.10;99.90;;;;;;5061663;28;20791;-82
2024/01/29 02:09:16;;;;;;;2.93;1.83;;;4.10;99.90;;;;;;5068095;28;20225;-81
2024/01/29 02:11:43;;;;;;;2.77;1.80;;;4.10;99.90;;;;;;5068518;28;20423;-81
2024/01/29 02:14:11;;;;;;;3.43;1.73;;;4.00;99.90;;;;;;5071596;28;20310;-81
2024/01/29 02:16:38;;;;;;;4.47;1.97;;;4.00;99.90;;;;;;5069871;28;20809;-81
2024/01/29 02:19:12;;;;;;;3.90;1.80;;;4.00;99.90;;;;;;5076849;28;20320;-80
2024/01/29 02:21:39;;;;;;;4.20;2.13;;;3.90;99.90;;;;;;5057934;28;20278;-81
2024/01/29 02:24:08;;;;;;;3.27;1.67;;;3.90;99.90;;;;;;5075688;28;20228;-80
2024/01/29 02:26:35;;;;;;;4.27;2.00;;;3.80;99.90;;;;;;5079458;28;20322;-81
2024/01/29 02:29:02;;;;;;;2.93;1.80;;;3.80;99.90;;;;;;5069847;28;20220;-81
2024/01/29 02:31:29;;;;;;;3.50;2.10;;;3.60;99.90;;;;;;5064535;28;20222;-81
2024/01/29 02:33:56;;;;;;;3.43;1.87;;;3.60;99.90;;;;;;5055587;28;20242;-82
2024/01/29 02:36:23;;;;;;;3.27;2.00;;;3.60;99.90;;;;;;5063171;28;20217;-82
2024/01/29 02:38:49;;;;;;;3.23;1.80;;;3.50;99.90;;;;;;5055612;28;20599;-83
2024/01/29 02:41:18;;;;;;;3.33;2.10;;;3.40;99.90;;;;;;5074740;28;20230;-82
2024/01/29 02:43:45;;;;;;;4.87;2.00;;;3.40;99.90;;;;;;5084411;28;20251;-82
2024/01/29 02:46:10;;;;;;;3.00;1.77;;;3.30;99.90;;;;;;5087248;28;20306;-81
2024/01/29 02:48:38;;;;;;;3.10;1.80;;;3.20;99.90;;;;;;5054692;28;20312;-82
2024/01/29 02:51:05;;;;;;;4.73;2.10;;;3.20;99.90;;;;;;5065073;28;20218;-81
2024/01/29 02:53:32;;;;;;;3.57;1.93;;;3.10;99.90;;;;;;5063438;28;20239;-81
2024/01/29 02:55:59;;;;;;;2.70;1.80;;;3.00;99.90;;;;;;5060484;28;20312;-82
2024/01/29 02:58:27;;;;;;;3.67;1.70;;;3.00;99.90;;;;;;5085776;28;20229;-82
2024/01/29 03:00:53;;;;;;;3.13;2.10;;;2.90;99.90;;;;;;5057455;28;20222;-81
2024/01/29 03:03:20;;;;;;;4.07;1.90;;;2.90;99.90;;;;;;5073540;28;20306;-81
2024/01/29 03:05:47;;;;;;;4.30;1.93;;;2.90;99.90;;;;;;5055862;28;20228;-81
2024/01/29 03:08:13;;;;;;;2.83;1.80;;;2.80;99.90;;;;;;5045916;28;20230;-82
2024/01/29 03:10:40;;;;;;;3.07;1.73;;;2.80;99.90;;;;;;5054807;28;20232;-81
2024/01/29 03:13:07;;;;;;;2.23;1.50;;;2.80;99.90;;;;;;5050044;28;20239;-81
2024/01/29 03:15:35;;;;;;;2.70;1.80;;;2.80;99.90;;;;;;5061492;28;20617;-81
2024/01/29 03:18:02;;;;;;;3.30;2.03;;;2.70;99.90;;;;;;5080235;28;20280;-81
2024/01/29 03:20:28;;;;;;;3.60;2.00;;;2.70;99.90;;;;;;5057136;28;21008;-82
2024/01/29 03:22:55;;;;;;;2.97;1.83;;;2.70;99.90;;;;;;5057320;28;20225;-83
2024/01/29 03:25:22;;;;;;;4.67;2.00;;;2.60;99.90;;;;;;5076247;28;20229;-82
2024/01/29 03:27:48;;;;;;;2.73;1.90;;;2.60;99.90;;;;;;5058906;28;20462;-81
2024/01/29 03:30:15;;;;;;;2.17;1.60;;;2.60;99.90;;;;;;5060660;28;20221;-82
2024/01/29 03:32:43;;;;;;;2.53;1.70;;;2.60;99.90;;;;;;5069580;28;20300;-81
2024/01/29 03:35:10;;;;;;;3.70;1.47;;;2.50;99.90;;;;;;5082908;28;20221;-82
2024/01/29 03:37:37;;;;;;;3.20;1.80;;;2.50;99.90;;;;;;5064542;28;20238;-82
2024/01/29 03:40:05;;;;;;;3.73;1.60;;;2.50;99.90;;;;;;5065820;28;20591;-82
2024/01/29 03:42:31;;;;;;;4.13;2.00;;;2.50;99.90;;;;;;5072982;28;20226;-81
2024/01/29 03:44:58;;;;;;;3.00;2.10;;;2.50;99.90;;;;;;5091200;28;20850;-83
2024/01/29 03:47:25;;;;;;;3.10;1.73;;;2.40;99.90;;;;;;5084347;28;20318;-82
2024/01/29 03:49:53;;;;;;;2.87;1.70;;;2.40;99.90;;;;;;5063303;28;20214;-83
2024/01/29 03:52:20;;;;;;;3.50;1.60;;;2.40;99.90;;;;;;5086871;28;20227;-83
2024/01/29 03:54:47;;;;;;;3.13;1.67;;;2.30;99.90;;;;;;5065938;28;20242;-83
2024/01/29 03:57:13;;;;;;;2.93;1.73;;;2.30;99.90;;;;;;5060704;28;20304;-82
2024/01/29 03:59:40;;;;;;;2.97;1.83;;;2.30;99.90;;;;;;5075558;28;20235;-82
2024/01/29 04:02:08;;;;;;;4.43;1.70;;;2.30;99.90;;;;;;5064254;28;20291;-82
2024/01/29 04:04:35;;;;;;;2.60;1.43;;;2.30;99.90;;;;;;5085009;28;20244;-83
2024/01/29 04:07:03;;;;;;;2.60;1.90;;;2.30;99.90;;;;;;5064230;28;20232;-82
2024/01/29 04:09:31;;;;;;;2.50;1.63;;;2.30;99.90;;;;;;5065135;28;20222;-82
2024/01/29 04:11:58;;;;;;;3.27;1.53;;;2.20;99.90;;;;;;5081857;28;20229;-82
2024/01/29 04:14:25;;;;;;;3.77;1.77;;;2.20;99.90;;;;;;5083643;28;20317;-81
2024/01/29 04:16:52;;;;;;;4.40;1.70;;;2.20;99.90;;;;;;5075363;28;20234;-82
2024/01/29 04:19:19;;;;;;;5.07;1.97;;;2.20;99.90;;;;;;5082244;28;20717;-82
2024/01/29 04:21:46;;;;;;;2.73;1.73;;;2.30;99.90;;;;;;5058992;28;20229;-81
2024/01/29 04:24:15;;;;;;;4.20;2.03;;;2.20;99.90;;;;;;5085077;28;20309;-81
2024/01/29 04:26:43;;;;;;;2.90;1.97;;;2.20;99.90;;;;;;5082820;28;20272;-81
2024/01/29 04:29:10;;;;;;;2.10;1.50;;;2.20;99.90;;;;;;5060886;28;20235;-81
2024/01/29 04:31:37;;;;;;;1.93;1.40;;;2.20;99.90;;;;;;5062695;28;20228;-82
2024/01/29 04:34:04;;;;;;;5.50;2.20;;;2.20;99.90;;;;;;5058948;28;20577;-80
2024/01/29 04:36:31;;;;;;;2.90;1.63;;;2.20;99.90;;;;;;5063811;28;21156;-81
2024/01/29 04:38:58;;;;;;;3.63;1.63;;;2.20;99.90;;;;;;5075686;28;20253;-83
2024/01/29 04:41:27;;;;;;;4.10;1.77;;;2.20;99.90;;;;;;5078441;28;20226;-81
2024/01/29 04:43:54;;;;;;;4.00;1.90;;;2.20;99.90;;;;;;5059295;28;20298;-82
2024/01/29 04:46:21;;;;;;;2.40;1.60;;;2.10;99.90;;;;;;5067114;28;20229;-82
2024/01/29 04:48:48;;;;;;;2.73;1.50;;;2.10;99.90;;;;;;5064331;28;20276;-81
2024/01/29 04:51:15;;;;;;;2.17;1.40;;;2.10;99.90;;;;;;5085924;28;20232;-82
2024/01/29 04:53:42;;;;;;;1.50;1.40;;;2.10;99.90;;;;;;5086444;28;20233;-82
2024/01/29 04:56:10;;;;;;;2.57;1.50;;;2.10;99.90;;;;;;5064894;28;20226;-82
2024/01/29 04:58:38;;;;;;;2.00;1.50;;;2.10;99.90;;;;;;5060766;28;21810;-85
2024/01/29 05:01:05;;;;;;;2.50;1.80;;;2.10;99.90;;;;;;5059692;28;20651;-82
2024/01/29 05:03:32;;;;;;;4.23;1.80;;;2.10;99.90;;;;;;5081641;28;20233;-82
2024/01/29 05:06:00;;;;;;;1.80;1.43;;;2.10;99.90;;;;;;5079605;28;20223;-83
2024/01/29 05:08:27;;;;;;;2.93;1.67;;;2.00;99.90;;;;;;5062866;28;20218;-83
2024/01/29 05:10:54;;;;;;;3.13;1.90;;;2.00;99.90;;;;;;5065562;28;20228;-81
2024/01/29 05:13:21;;;;;;;4.03;1.67;;;2.00;99.90;;;;;;5067348;28;20224;-81
2024/01/29 05:15:50;;;;;;;3.87;1.57;;;2.00;99.90;;;;;;5065871;28;20217;-81
2024/01/29 05:18:17;;;;;;;2.97;1.70;;;1.90;99.90;;;;;;5064241;28;20282;-82
2024/01/29 05:20:45;;;;;;;2.83;1.90;;;2.00;99.90;;;;;;5071347;28;20711;-82
2024/01/29 05:23:12;;;;;;;4.57;1.80;;;1.90;99.90;;;;;;5064925;28;20302;-82
2024/01/29 05:25:39;;;;;;;4.03;2.20;;;1.90;99.90;;;;;;5063408;28;20251;-82
2024/01/29 05:28:06;;;;;;;3.30;2.10;;;1.90;99.90;;;;;;5063286;28;20285;-83
2024/01/29 05:30:33;;;;;;;2.93;2.00;;;1.90;99.90;;;;;;5073256;28;20837;-82
2024/01/29 05:33:02;;;;;;;2.60;1.67;;;1.80;99.90;;;;;;5060980;28;20223;-81
2024/01/29 05:35:29;;;;;;;2.53;1.90;;;1.80;99.90;;;;;;5085152;28;20515;-81
2024/01/29 05:37:56;;;;;;;3.13;1.60;;;1.80;99.90;;;;;;5087988;28;22439;-81
2024/01/29 05:40:23;;;;;;;3.27;1.80;;;1.70;99.90;;;;;;5088875;28;20240;-81
2024/01/29 05:42:53;;;;;;;5.37;2.00;;;1.70;99.90;;;;;;5087322;28;20256;-82
2024/01/29 05:45:20;;;;;;;3.87;2.07;;;1.70;99.90;;;;;;5061042;28;20231;-83
2024/01/29 05:47:47;;;;;;;1.97;1.70;;;1.70;99.90;;;;;;5066762;28;20603;-81
2024/01/29 05:50:16;;;;;;;2.33;1.70;;;1.60;99.90;;;;;;5084628;28;20581;-83
2024/01/29 05:52:44;;;;;;;2.90;1.70;;;1.60;99.90;;;;;;5063202;28;21843;-82
2024/01/29 05:55:11;;;;;;;3.00;1.57;;;1.60;99.90;;;;;;5064708;28;20721;-83
2024/01/29 05:57:38;;;;;;;5.07;2.00;;;1.60;99.90;;;;;;5087155;28;20252;-83
2024/01/29 06:00:10;;;;;;;3.63;1.93;;;1.60;99.90;;;;;;5067440;28;20876;-83
2024/01/29 06:02:43;;;;;;;3.10;1.80;;;1.50;99.90;;;;;;5057178;28;20238;-83
2024/01/29 06:05:11;;;;;;;5.00;2.10;;;1.50;99.90;;;;;;5063441;28;20331;-82
2024/01/29 06:07:40;;;;;;;2.80;1.53;;;1.50;99.90;;;;;;5063161;28;20591;-83
2024/01/29 06:10:09;;;;;;;2.67;1.77;;;1.50;99.90;;;;;;5079617;28;20278;-85
2024/01/29 06:12:37;;;;;;;3.07;2.00;;;1.50;99.90;;;;;;5084732;28;20305;-84
2024/01/29 06:15:04;;;;;;;2.90;1.70;;;1.50;99.90;;;;;;5068901;28;20277;-85
2024/01/29 06:17:32;;;;;;;4.07;2.00;;;1.50;99.90;;;;;;5060418;28;20230;-84
2024/01/29 06:19:59;;;;;;;2.60;1.67;;;1.50;99.90;;;;;;5062716;28;20233;-85
2024/01/29 06:22:26;;;;;;;2.93;1.50;;;1.50;99.90;;;;;;5064317;28;20234;-84
2024/01/29 06:24:54;;;;;;;2.03;1.47;;;1.50;99.90;;;;;;5058911;28;20222;-85
2024/01/29 06:27:21;;;;;;;4.83;1.60;;;1.40;99.90;;;;;;5063017;28;20218;-86
2024/01/29 06:29:48;;;;;;;2.77;1.60;;;1.50;99.90;;;;;;5065494;28;20306;-86
2024/01/29 06:32:15;;;;;;;3.07;1.50;;;1.40;99.90;;;;;;5065472;28;20310;-86
2024/01/29 06:34:41;;;;;;;4.03;1.77;;;1.40;99.90;;;;;;5065390;28;20321;-87
2024/01/29 06:37:08;;;;;;;3.43;1.50;;;1.40;99.90;;;;;;5066492;28;20315;-86
2024/01/29 06:39:35;;;;;;;3.80;1.87;;;1.40;99.90;;;;;;5063787;28;20223;-86
2024/01/29 06:42:03;;;;;;;3.37;1.70;;;1.50;99.90;;;;;;5077141;28;20665;-87
2024/01/29 06:44:30;;;;;;;3.53;1.50;;;1.40;99.90;;;;;;5062195;28;20232;-86
2024/01/29 06:46:57;;;;;;;3.10;1.67;;;1.40;99.90;;;;;;5063604;28;20248;-86
2024/01/29 06:49:30;;;;;;;2.80;1.73;;;1.40;99.90;;;;;;5085408;28;20225;-86
2024/01/29 06:51:57;;;;;;;5.73;3.77;;;1.40;99.90;;;;;;5065198;28;20222;-85
2024/01/29 06:54:24;;;;;;;9.23;4.97;;;1.40;99.90;;;;;;5060087;28;20309;-83
2024/01/29 06:56:52;;;;;;;20.43;11.83;;;1.40;99.90;;;;;;5067732;28;20242;-82
2024/01/29 06:59:20;;;;;;;10.57;7.27;;;1.40;99.90;;;;;;5065901;28;20214;-83
2024/01/29 07:01:47;;;;;;;4.23;3.13;;;1.40;99.90;;;;;;5042598;28;20303;-82
2024/01/29 07:04:13;;;;;;;4.43;2.30;;;1.40;99.90;;;;;;5077001;28;20213;-82
2024/01/29 07:06:40;;;;;;;3.73;2.20;;;1.40;99.90;;;;;;5069478;28;20309;-82
2024/01/29 07:09:07;;;;;;;3.70;1.90;;;1.40;99.90;;;;;;5087862;28;20305;-82
2024/01/29 07:11:34;;;;;;;3.63;2.13;;;1.40;99.90;;;;;;5060485;28;20229;-82
2024/01/29 07:14:00;;;;;;;4.20;2.60;;;1.40;99.90;;;;;;5049866;28;20323;-82
2024/01/29 07:16:29;;;;;;;4.03;3.67;;;1.40;99.90;;;;;;5051592;28;20267;-81
2024/01/29 07:18:55;;;;;;;7.87;5.87;;;1.40;99.90;;;;;;5063376;28;20766;-82
2024/01/29 07:21:22;;;;;;;8.00;7.00;;;1.40;99.90;;;;;;5087728;28;20221;-82
2024/01/29 07:23:49;;;;;;;7.67;4.10;;;1.40;99.90;;;;;;5064365;28;20284;-81
2024/01/29 07:26:16;;;;;;;3.70;2.50;;;1.40;99.90;;;;;;5062758;28;20229;-83
2024/01/29 07:28:42;;;;;;;3.73;2.40;;;1.40;99.90;;;;;;5082139;28;20227;-84
2024/01/29 07:31:09;;;;;;;4.17;2.60;;;1.40;99.90;;;;;;5060318;28;20223;-83
2024/01/29 07:33:37;;;;;;;4.63;2.13;;;1.40;99.90;;;;;;5066680;28;20264;-83
2024/01/29 07:36:04;;;;;;;2.90;1.70;;;1.50;99.90;;;;;;5050093;28;20226;-84
2024/01/29 07:38:31;;;;;;;3.03;2.10;;;1.50;99.90;;;;;;5051064;28;20229;-84
2024/01/29 07:40:57;;;;;;;4.37;1.70;;;1.50;99.90;;;;;;5055460;28;20228;-84
2024/01/29 07:43:24;;;;;;;2.40;1.70;;;1.50;99.90;;;;;;5059177;28;20238;-84
2024/01/29 07:45:51;;;;;;;4.50;1.80;;;1.60;99.90;;;;;;5067285;28;20226;-83
2024/01/29 07:48:18;;;;;;;3.17;1.53;;;1.60;99.90;;;;;;5055982;28;20236;-86
2024/01/29 07:50:46;;;;;;;2.60;1.80;;;1.60;99.90;;;;;;5059567;28;20315;-84
2024/01/29 07:53:12;;;;;;;2.57;1.80;;;1.70;99.90;;;;;;5079093;28;20298;-84
2024/01/29 07:55:39;;;;;;;3.93;2.00;;;1.70;99.90;;;;;;5085178;28;20250;-84
2024/01/29 07:58:07;;;;;;;2.73;2.10;;;1.80;99.90;;;;;;5062674;28;20837;-82
2024/01/29 08:00:34;;;;;;;2.30;1.80;;;1.80;99.90;;;;;;5086597;28;20219;-83
2024/01/29 08:03:00;;;;;;;3.83;1.70;;;1.90;99.90;;;;;;5064855;28;20830;-84
2024/01/29 08:05:27;;;;;;;2.47;1.67;;;2.00;99.90;;;;;;5084107;28;20229;-86
2024/01/29 08:07:55;;;;;;;2.30;1.50;;;2.10;99.90;;;;;;5074697;28;20232;-82
2024/01/29 08:10:22;;;;;;;1.83;1.53;;;2.20;99.90;;;;;;5082997;28;20222;-81
2024/01/29 08:12:48;;;;;;;2.47;1.87;;;2.20;99.90;;;;;;5070956;28;20317;-83
2024/01/29 08:15:16;;;;;;;2.43;1.67;;;2.30;99.90;;;;;;5067254;28;20225;-82
2024/01/29 08:17:42;;;;;;;3.83;1.70;;;2.40;99.90;;;;;;5097412;28;20240;-81
2024/01/29 08:20:10;;;;;;;2.27;1.53;;;2.50;99.90;;;;;;5071496;28;20214;-83
2024/01/29 08:22:36;;;;;;;2.27;1.70;;;2.60;99.90;;;;;;5070069;28;20218;-82
2024/01/29 08:25:06;;;;;;;2.50;1.70;;;2.70;99.90;;;;;;5068141;28;20316;-81
2024/01/29 08:27:32;;;;;;;3.40;1.80;;;2.80;99.90;;;;;;5057194;28;20229;-82
2024/01/29 08:29:59;;;;;;;2.20;1.73;;;2.90;99.90;;;;;;5083410;28;20290;-79
2024/01/29 08:32:26;;;;;;;3.37;1.80;;;3.00;99.90;;;;;;5053414;28;20284;-81
2024/01/29 08:34:53;;;;;;;5.27;2.30;;;3.10;99.90;;;;;;5044065;28;20227;-81
2024/01/29 08:37:20;;;;;;;3.50;1.80;;;3.10;99.90;;;;;;5058048;28;20289;-82
2024/01/29 08:39:46;;;;;;;2.83;2.17;;;3.20;99.90;;;;;;5078651;28;20257;-83
2024/01/29 08:42:15;;;;;;;2.93;1.83;;;3.30;99.90;;;;;;5059943;28;20222;-82
2024/01/29 08:44:41;;;;;;;2.63;1.73;;;3.30;99.90;;;;;;5082242;28;20234;-80
2024/01/29 08:47:08;;;;;;;3.40;1.53;;;3.40;99.90;;;;;;5043983;28;20327;-82
2024/01/29 08:49:35;;;;;;;2.63;1.60;;;3.40;99.90;;;;;;5072945;28;20229;-83
2024/01/29 08:52:02;;;;;;;3.30;1.80;;;3.50;99.90;;;;;;5067946;28;20693;-82
2024/01/29 08:54:29;;;;;;;3.00;1.93;;;3.60;99.90;;;;;;5064427;28;20319;-83
2024/01/29 08:56:56;;;;;;;3.97;2.07;;;3.70;99.90;;;;;;5061274;28;20280;-82
2024/01/29 08:59:25;;;;;;;3.43;1.97;;;3.80;99.90;;;;;;5052763;28;20258;-82
2024/01/29 09:01:52;;;;;;;1.93;1.60;;;4.00;99.90;;;;;;5053846;28;20234;-83
2024/01/29 09:04:19;;;;;;;2.63;1.40;;;4.10;99.90;;;;;;5072999;28;20218;-83
2024/01/29 09:06:45;;;;;;;4.70;1.60;;;4.30;99.90;;;;;;5062382;28;20788;-83
2024/01/29 09:09:12;;;;;;;2.93;2.03;;;4.50;99.90;;;;;;5063037;28;20299;-81
2024/01/29 09:11:39;;;;;;;2.57;1.73;;;4.60;99.90;;;;;;5066570;28;20309;-84
2024/01/29 09:14:05;;;;;;;2.80;1.80;;;4.80;99.90;;;;;;5054790;28;20483;-85
2024/01/29 09:16:33;;;;;;;2.73;1.70;;;4.90;99.90;;;;;;5060363;28;20230;-84
2024/01/29 09:19:00;;;;;;;2.80;1.80;;;5.10;99.90;;;;;;5064278;28;20232;-83
2024/01/29 09:21:30;;;;;;;2.53;1.50;;;5.20;99.90;;;;;;5067542;28;20224;-85
2024/01/29 09:23:59;;;;;;;1.70;1.50;;;5.30;99.90;;;;;;5073330;28;20224;-84
2024/01/29 09:26:26;;;;;;;2.03;1.63;;;5.50;99.90;;;;;;5073940;28;20950;-83
2024/01/29 09:28:53;;;;;;;2.70;1.50;;;5.60;99.90;;;;;;5082551;28;20722;-82
2024/01/29 09:31:20;;;;;;;2.23;1.80;;;5.70;99.90;;;;;;5066811;28;20720;-82
2024/01/29 09:33:48;;;;;;;2.40;1.30;;;5.80;99.90;;;;;;5059199;28;20228;-82
2024/01/29 09:36:15;;;;;;;2.33;1.60;;;6.00;99.90;;;;;;5060540;28;20248;-81
2024/01/29 09:38:41;;;;;;;2.10;1.40;;;6.10;99.90;;;;;;5077306;28;20311;-82
2024/01/29 09:41:08;;;;;;;2.63;1.70;;;6.30;99.90;;;;;;5077223;28;20290;-82
2024/01/29 09:43:35;;;;;;;2.40;1.67;;;6.50;99.90;;;;;;5064638;28;20658;-82
2024/01/29 09:46:03;;;;;;;1.73;1.43;;;6.60;99.80;;;;;;5081112;28;20720;-83
2024/01/29 09:48:33;;;;;;;1.97;1.33;;;6.80;99.70;;;;;;5083054;28;20701;-84
2024/01/29 09:51:01;;;;;;;6.13;1.83;;;7.00;99.60;;;;;;5059544;28;20228;-82
2024/01/29 09:53:29;;;;;;;2.37;1.70;;;7.10;99.20;;;;;;5081954;28;20701;-81
2024/01/29 09:55:56;;;;;;;2.27;1.53;;;7.20;98.90;;;;;;5073280;28;20276;-81
2024/01/29 09:58:23;;;;;;;2.50;1.50;;;7.30;98.70;;;;;;5084822;28;20225;-81
2024/01/29 10:00:51;;;;;;;2.73;1.50;;;7.50;98.60;;;;;;5088390;28;20223;-82
2024/01/29 10:03:22;;;;;;;1.87;1.27;;;7.60;98.50;;;;;;5070278;28;20225;-81
2024/01/29 10:05:51;;;;;;;2.87;1.93;;;7.70;98.10;;;;;;5066677;28;20242;-81
2024/01/29 10:08:20;;;;;;;1.97;1.30;;;7.90;98.10;;;;;;5076574;28;20261;-81
2024/01/29 10:10:50;;;;;;;2.30;1.60;;;8.00;97.60;;;;;;5085283;28;20246;-81
2024/01/29 10:13:17;;;;;;;3.20;1.90;;;8.10;97.30;;;;;;5083622;28;20219;-84
2024/01/29 10:15:44;;;;;;;3.93;1.70;;;8.20;97.50;;;;;;5074046;28;20225;-81
2024/01/29 10:18:11;;;;;;;1.87;1.37;;;8.30;97.50;;;;;;5088865;28;20260;-83
2024/01/29 10:20:38;;;;;;;3.17;1.50;;;8.40;97.40;;;;;;5068138;28;20277;-81
2024/01/29 10:23:05;;;;;;;2.87;1.60;;;8.60;97.50;;;;;;5071247;28;20298;-82
2024/01/29 10:25:35;;;;;;;2.63;1.60;;;8.70;97.30;;;;;;5089650;28;20846;-81
2024/01/29 10:28:09;;;;;;;3.43;1.60;;;8.80;97.00;;;;;;5088197;28;20310;-82
2024/01/29 10:30:36;;;;;;;2.37;1.43;;;8.90;96.70;;;;;;5085793;28;20257;-81
2024/01/29 10:33:02;;;;;;;2.73;1.90;;;9.10;97.20;;;;;;5090380;28;20450;-81
2024/01/29 10:35:29;;;;;;;2.13;1.60;;;9.20;96.90;;;;;;5089379;28;20254;-81
2024/01/29 10:38:01;;;;;;;2.00;1.37;;;9.30;96.50;;;;;;5067390;28;20264;-81
2024/01/29 10:40:29;;;;;;;2.50;1.50;;;9.40;95.90;;;;;;5089452;28;20246;-83
2024/01/29 10:42:59;;;;;;;2.07;1.80;;;9.50;96.20;;;;;;5085094;28;20281;-82
2024/01/29 10:45:26;;;;;;;2.13;1.67;;;9.60;95.80;;;;;;5071070;28;20229;-83
2024/01/29 10:48:04;;;;;;;2.73;1.70;;;9.70;95.80;;;;;;5068292;28;20304;-81
2024/01/29 10:50:30;;;;;;;2.70;1.60;;;9.80;95.60;;;;;;5094696;28;20970;-81
2024/01/29 10:53:00;;;;;;;3.07;1.80;;;9.90;95.40;;;;;;5091238;28;20263;-80
2024/01/29 10:55:30;;;;;;;2.27;1.50;;;10.00;95.20;;;;;;5087649;28;20273;-82
2024/01/29 10:58:00;;;;;;;2.20;1.77;;;10.00;95.30;;;;;;5087803;28;20222;-81
2024/01/29 11:00:27;;;;;;;2.93;1.73;;;10.10;94.90;;;;;;5085508;28;20223;-83
2024/01/29 11:02:56;;;;;;;3.40;1.77;;;10.20;95.50;;;;;;5068238;28;20305;-82
2024/01/29 11:05:24;;;;;;;2.03;1.37;;;10.20;95.00;;;;;;5067805;28;20280;-81
2024/01/29 11:07:54;;;;;;;2.80;1.70;;;10.30;95.20;;;;;;5089300;28;20727;-84
2024/01/29 11:10:23;;;;;;;2.00;1.63;;;10.40;94.90;;;;;;5087690;28;20930;-83
2024/01/29 11:12:54;;;;;;;2.60;1.60;;;10.50;94.90;;;;;;5065921;28;21013;-83
2024/01/29 11:15:22;;;;;;;2.93;1.80;;;10.60;94.90;;;;;;5086033;28;20267;-82
2024/01/29 11:17:49;;;;;;;3.00;1.83;;;10.70;94.50;;;;;;5068003;28;20218;-82
2024/01/29 11:20:17;;;;;;;3.43;1.67;;;10.80;94.50;;;;;;5070742;28;20291;-83
2024/01/29 11:22:51;;;;;;;3.10;2.00;;;10.80;94.50;;;;;;5068046;28;20229;-84
2024/01/29 11:25:19;;;;;;;2.47;1.70;;;10.80;94.10;;;;;;5074399;28;20264;-83
2024/01/29 11:27:49;;;;;;;3.63;1.77;;;10.90;94.60;;;;;;5094574;28;20291;-83
2024/01/29 11:30:19;;;;;;;2.33;1.90;;;10.90;94.20;;;;;;5062853;28;20251;-83
2024/01/29 11:32:47;;;;;;;3.20;1.80;;;11.00;94.20;;;;;;5090708;28;20223;-83
2024/01/29 11:35:16;;;;;;;2.93;2.00;;;10.90;94.00;;;;;;5075216;28;20256;-83
2024/01/29 11:37:42;;;;;;;3.60;1.90;;;10.90;94.00;;;;;;5090538;28;20254;-83
2024/01/29 11:40:30;;;;;;;3.60;2.20;;;10.90;94.10;;;;;;5089109;28;20221;-83
2024/01/29 11:42:57;;;;;;;2.80;2.00;;;10.80;93.60;;;;;;5062919;28;20238;-83
2024/01/29 11:45:24;;;;;;;2.33;2.00;;;10.80;94.30;;;;;;5075227;28;21141;-83
2024/01/29 11:47:52;;;;;;;4.97;1.93;;;10.80;94.20;;;;;;5076907;28;20248;-83
2024/01/29 11:50:19;;;;;;;3.77;1.90;;;10.80;94.00;;;;;;5086099;28;20238;-83
2024/01/29 11:52:46;;;;;;;4.67;2.23;;;10.80;94.00;;;;;;5066998;28;20249;-83
2024/01/29 11:55:14;;;;;;;3.23;1.73;;;10.80;94.20;;;;;;5084218;28;20237;-83
2024/01/29 11:57:44;;;;;;;2.33;1.80;;;10.80;94.30;;;;;;5069495;28;20279;-83
2024/01/29 12:00:18;;;;;;;3.73;1.90;;;10.80;93.90;;;;;;5085604;28;20655;-83
2024/01/29 12:02:45;;;;;;;4.03;2.30;;;10.80;94.30;;;;;;5090180;28;20215;-83
2024/01/29 12:05:15;;;;;;;2.63;1.90;;;10.90;94.00;;;;;;5068356;28;20287;-83
2024/01/29 12:07:42;;;;;;;2.97;2.17;;;10.90;94.10;;;;;;5069009;28;20256;-83
2024/01/29 12:10:09;;;;;;;2.70;1.90;;;10.90;94.30;;;;;;5088856;28;20313;-84
2024/01/29 12:12:36;;;;;;;2.33;1.67;;;11.00;94.30;;;;;;5086243;28;20332;-84
2024/01/29 12:15:03;;;;;;;3.50;2.10;;;11.00;94.50;;;;;;5086478;28;20792;-84
2024/01/29 12:17:31;;;;;;;3.83;2.43;;;11.10;94.40;;;;;;5085855;28;20328;-84
2024/01/29 12:19:58;;;;;;;3.60;2.10;;;11.20;94.20;;;;;;5083647;28;20254;-84
2024/01/29 12:22:26;;;;;;;4.13;2.10;;;11.20;94.50;;;;;;5062407;28;20315;-82
2024/01/29 12:24:53;;;;;;;4.47;2.40;;;11.30;94.30;;;;;;5068003;28;20323;-83
2024/01/29 12:27:20;;;;;;;5.90;2.87;;;11.40;94.20;;;;;;5086221;28;20221;-83
2024/01/29 12:29:47;;;;;;;5.43;2.60;;;11.40;93.90;;;;;;5090759;28;20311;-83
2024/01/29 12:32:17;;;;;;;3.70;2.90;;;11.50;94.00;;;;;;5086187;28;20891;-83
2024/01/29 12:34:45;;;;;;;5.57;3.03;;;11.50;94.20;;;;;;5069351;28;20241;-83
2024/01/29 12:37:18;;;;;;;5.03;2.90;;;11.50;93.80;;;;;;5068373;28;20236;-83
2024/01/29 12:39:52;;;;;;;3.87;2.97;;;11.50;93.60;;;;;;5094846;28;20223;-83
2024/01/29 12:42:18;;;;;;;5.83;3.13;;;11.60;93.70;;;;;;5081995;28;20222;-84
2024/01/29 12:44:45;;;;;;;7.50;3.43;;;11.60;93.80;;;;;;5067892;28;20315;-83
2024/01/29 12:47:13;;;;;;;3.83;3.00;;;11.60;93.60;;;;;;5068100;28;20221;-84
2024/01/29 12:49:40;;;;;;;4.13;3.10;;;11.60;93.70;;;;;;5085337;28;20231;-83
2024/01/29 12:52:08;;;;;;;4.67;2.87;;;11.60;93.90;;;;;;5078000;28;20811;-83
2024/01/29 12:54:35;;;;;;;4.60;3.30;;;11.60;93.60;;;;;;5083478;28;20961;-83
2024/01/29 12:57:04;;;;;;;4.97;3.30;;;11.50;94.00;;;;;;5064681;28;20227;-84